Time;durP1;ratioP1;P1;durP2;ratioP2;P2;SDS_P1;SDS_P2;PMS_P1;PMS_P2;Temp;Humidity;BMP_temperature;BMP_pressure;BME280_temperature;BME280_humidity;BME280_pressure;Samples;Min_cycle;Max_cycle;Signal;HPM_P1;HPM_P2
2023/09/08 00:02:25;;;;;;;6.10;5.70;;;;;;;18.99;100.00;100364.31;5019617;28;20212;-77
2023/09/08 00:04:50;;;;;;;6.57;5.90;;;;;;;18.96;100.00;100364.47;5015023;28;20205;-77
2023/09/08 00:07:15;;;;;;;8.03;6.40;;;;;;;18.95;100.00;100361.00;5033070;28;20196;-77
2023/09/08 00:09:41;;;;;;;6.40;5.90;;;;;;;18.93;100.00;100364.56;5015736;28;20268;-79
2023/09/08 00:12:06;;;;;;;5.77;5.33;;;;;;;18.92;100.00;100368.09;5018751;28;20207;-78
2023/09/08 00:14:31;;;;;;;6.03;5.53;;;;;;;18.91;100.00;100356.75;5016529;28;20675;-77
2023/09/08 00:16:57;;;;;;;6.17;5.70;;;;;;;18.90;100.00;100362.94;5020600;28;20652;-77
2023/09/08 00:19:23;;;;;;;6.33;5.73;;;;;;;18.88;100.00;100360.38;5016912;28;20682;-78
2023/09/08 00:21:49;;;;;;;6.67;6.17;;;;;;;18.86;100.00;100361.34;5022175;28;20212;-77
2023/09/08 00:24:14;;;;;;;6.87;6.20;;;;;;;18.81;100.00;100366.81;5022829;28;20195;-78
2023/09/08 00:26:40;;;;;;;6.57;6.07;;;;;;;18.74;100.00;100360.09;5030175;28;20191;-77
2023/09/08 00:29:05;;;;;;;6.20;5.70;;;;;;;18.67;100.00;100358.66;5025700;28;20308;-77
2023/09/08 00:31:30;;;;;;;6.60;5.90;;;;;;;18.62;100.00;100360.63;5016122;28;20694;-78
2023/09/08 00:33:56;;;;;;;6.63;6.00;;;;;;;18.57;100.00;100361.66;5019868;28;20189;-77
2023/09/08 00:36:21;;;;;;;6.63;6.00;;;;;;;18.52;100.00;100355.75;5020104;28;20686;-78
2023/09/08 00:38:46;;;;;;;6.40;5.90;;;;;;;18.47;100.00;100349.84;5022946;28;20194;-77
2023/09/08 00:41:12;;;;;;;6.60;6.13;;;;;;;18.43;100.00;100357.00;5023122;28;20305;-77
2023/09/08 00:43:37;;;;;;;6.50;6.00;;;;;;;18.40;100.00;100351.88;5022400;28;20198;-78
2023/09/08 00:46:03;;;;;;;6.27;5.87;;;;;;;18.39;100.00;100351.91;5024562;28;20677;-77
2023/09/08 00:48:29;;;;;;;6.20;5.80;;;;;;;18.36;100.00;100355.53;5023184;28;20208;-78
2023/09/08 00:50:55;;;;;;;6.97;6.40;;;;;;;18.34;100.00;100359.97;5020249;28;21745;-78
2023/09/08 00:53:21;;;;;;;6.17;5.67;;;;;;;18.32;100.00;100358.34;5022539;28;20256;-77
2023/09/08 00:55:47;;;;;;;6.20;5.70;;;;;;;18.28;100.00;100357.59;5021025;28;20185;-77
2023/09/08 00:58:12;;;;;;;6.50;6.03;;;;;;;18.23;100.00;100355.16;5015282;28;20222;-77
2023/09/08 01:00:38;;;;;;;6.70;6.20;;;;;;;18.21;100.00;100353.50;5015019;28;20458;-77
2023/09/08 01:03:03;;;;;;;6.37;5.77;;;;;;;18.19;100.00;100350.09;5026844;28;20257;-77
2023/09/08 01:05:29;;;;;;;6.10;5.70;;;;;;;18.16;100.00;100347.59;5020878;28;20794;-77
2023/09/08 01:07:55;;;;;;;6.53;6.13;;;;;;;18.12;100.00;100352.97;5027117;28;20193;-77
2023/09/08 01:10:21;;;;;;;6.83;6.33;;;;;;;18.10;100.00;100346.94;5023704;28;20207;-77
2023/09/08 01:12:46;;;;;;;6.23;5.83;;;;;;;18.09;100.00;100357.47;5023863;28;20795;-78
2023/09/08 01:15:12;;;;;;;6.60;6.07;;;;;;;18.06;100.00;100368.06;5031089;28;20180;-78
2023/09/08 01:17:37;;;;;;;6.50;6.00;;;;;;;18.02;100.00;100366.50;5031613;28;20217;-78
2023/09/08 01:20:14;;;;;;;6.13;5.67;;;;;;;18.00;100.00;100373.53;5021563;28;20189;-77
2023/09/08 01:23:18;;;;;;;6.70;6.20;;;;;;;17.95;100.00;100371.91;5024626;28;20633;-77
2023/09/08 01:26:04;;;;;;;5.80;5.37;;;;;;;17.91;100.00;100369.47;5019796;28;20178;-77
2023/09/08 01:28:32;;;;;;;6.57;6.03;;;;;;;17.88;100.00;100369.59;5025172;28;20197;-78
2023/09/08 01:30:57;;;;;;;5.70;5.30;;;;;;;17.83;100.00;100369.78;5027601;28;20308;-77
2023/09/08 01:33:23;;;;;;;5.97;5.50;;;;;;;17.81;100.00;100367.22;5027133;28;20672;-78
2023/09/08 01:35:49;;;;;;;6.63;5.80;;;;;;;17.80;100.00;100367.25;5017171;28;20177;-77
2023/09/08 01:38:14;;;;;;;6.00;5.60;;;;;;;17.79;100.00;100358.56;5026123;28;20223;-77
2023/09/08 01:40:40;;;;;;;6.00;5.50;;;;;;;17.80;100.00;100364.66;5023748;28;20172;-78
2023/09/08 01:43:05;;;;;;;6.20;5.80;;;;;;;17.80;100.00;100362.03;5021992;28;20203;-77
2023/09/08 01:45:30;;;;;;;6.47;5.97;;;;;;;17.78;100.00;100362.09;5033843;28;20193;-78
2023/09/08 01:47:56;;;;;;;6.87;6.37;;;;;;;17.77;100.00;100360.38;5029358;28;20192;-75
2023/09/08 01:50:22;;;;;;;7.10;6.60;;;;;;;17.76;100.00;100358.69;5028653;28;20221;-77
2023/09/08 01:52:48;;;;;;;6.40;6.00;;;;;;;17.74;100.00;100357.88;5026534;28;20222;-77
2023/09/08 01:55:15;;;;;;;6.23;5.70;;;;;;;17.73;100.00;100350.09;5021068;28;20801;-77
2023/09/08 01:57:40;;;;;;;6.10;5.67;;;;;;;17.73;100.00;100352.72;5023279;28;20220;-77
2023/09/08 02:00:06;;;;;;;6.03;5.63;;;;;;;17.70;100.00;100350.22;5022908;28;20205;-78
2023/09/08 02:02:31;;;;;;;6.73;6.20;;;;;;;17.68;100.00;100356.34;5023249;28;20727;-77
2023/09/08 02:04:56;;;;;;;6.13;5.63;;;;;;;17.68;100.00;100356.34;5026286;28;20194;-77
2023/09/08 02:07:22;;;;;;;6.30;5.90;;;;;;;17.67;100.00;100361.66;5027898;28;20245;-77
2023/09/08 02:09:47;;;;;;;6.70;6.23;;;;;;;17.65;100.00;100359.06;5016821;28;20204;-77
2023/09/08 02:12:12;;;;;;;7.10;6.60;;;;;;;17.62;100.00;100356.56;5029915;28;20209;-79
2023/09/08 02:14:37;;;;;;;6.53;6.03;;;;;;;17.61;100.00;100361.88;5018787;28;20271;-77
2023/09/08 02:17:03;;;;;;;6.70;6.20;;;;;;;17.54;100.00;100358.63;5028091;28;20189;-78
2023/09/08 02:19:28;;;;;;;6.50;6.00;;;;;;;17.50;100.00;100364.88;5017433;28;20296;-78
2023/09/08 02:21:54;;;;;;;6.60;6.10;;;;;;;17.45;100.00;100365.06;5023725;28;20209;-77
2023/09/08 02:24:19;;;;;;;6.93;6.37;;;;;;;17.40;100.00;100364.34;5024826;28;20189;-78
2023/09/08 02:26:44;;;;;;;6.60;6.10;;;;;;;17.35;100.00;100356.69;5023918;28;20235;-78
2023/09/08 02:29:10;;;;;;;6.30;5.90;;;;;;;17.31;100.00;100365.56;5023312;28;20207;-77
2023/09/08 02:31:36;;;;;;;5.97;5.47;;;;;;;17.27;100.00;100366.56;5024244;28;20212;-76
2023/09/08 02:34:01;;;;;;;6.63;6.10;;;;;;;17.25;100.00;100368.38;5034558;28;20207;-78
2023/09/08 02:36:26;;;;;;;6.87;6.27;;;;;;;17.24;100.00;100365.84;5022838;28;20659;-77
2023/09/08 02:38:55;;;;;;;6.40;5.90;;;;;;;17.23;100.00;100364.13;5018299;28;20222;-78
2023/09/08 02:41:21;;;;;;;6.23;5.80;;;;;;;17.23;100.00;100359.75;5020491;28;20207;-77
2023/09/08 02:43:47;;;;;;;6.30;5.80;;;;;;;17.24;100.00;100358.84;5029092;28;20702;-77
2023/09/08 02:46:13;;;;;;;6.37;5.83;;;;;;;17.24;100.00;100363.22;5023748;28;20258;-78
2023/09/08 02:48:38;;;;;;;5.87;5.37;;;;;;;17.25;100.00;100364.91;5024554;28;20537;-78
2023/09/08 02:51:03;;;;;;;6.87;6.27;;;;;;;17.25;100.00;100360.53;5027439;28;20265;-77
2023/09/08 02:53:29;;;;;;;6.67;5.90;;;;;;;17.26;100.00;100361.38;5022598;28;20249;-78
2023/09/08 02:55:55;;;;;;;6.40;5.90;;;;;;;17.26;100.00;100359.63;5032928;28;21140;-78
2023/09/08 02:58:20;;;;;;;6.07;5.53;;;;;;;17.25;100.00;100360.53;5030360;28;20189;-77
2023/09/08 03:00:46;;;;;;;6.57;5.97;;;;;;;17.25;100.00;100360.53;5024071;28;20184;-77
2023/09/08 03:03:11;;;;;;;6.87;6.27;;;;;;;17.22;100.00;100365.88;5024633;28;20289;-78
2023/09/08 03:05:36;;;;;;;7.23;6.50;;;;;;;17.17;100.00;100355.59;5029619;28;20198;-78
2023/09/08 03:08:03;;;;;;;6.20;5.70;;;;;;;17.12;100.00;100367.94;5031825;28;20682;-77
2023/09/08 03:10:28;;;;;;;6.63;6.10;;;;;;;17.07;100.00;100369.91;5023311;28;20591;-77
2023/09/08 03:12:54;;;;;;;6.50;6.00;;;;;;;17.00;100.00;100366.66;5024560;28;20207;-77
2023/09/08 03:15:19;;;;;;;6.40;5.90;;;;;;;16.96;100.00;100372.88;5027616;28;20183;-78
2023/09/08 03:17:44;;;;;;;6.83;6.27;;;;;;;16.91;100.00;100370.41;5023832;28;20280;-77
2023/09/08 03:20:10;;;;;;;6.43;6.00;;;;;;;16.88;100.00;100373.09;5025921;28;20190;-77
2023/09/08 03:22:36;;;;;;;6.50;6.00;;;;;;;16.84;100.00;100376.72;5021491;28;20239;-77
2023/09/08 03:25:01;;;;;;;6.03;5.60;;;;;;;16.82;100.00;100383.75;5027881;28;20218;-78
2023/09/08 03:27:26;;;;;;;6.27;5.87;;;;;;;16.80;100.00;100380.34;5029190;28;20183;-78
2023/09/08 03:29:52;;;;;;;6.97;6.37;;;;;;;16.78;100.00;100379.56;5022729;28;20204;-77
2023/09/08 03:32:17;;;;;;;6.27;5.87;;;;;;;16.75;100.00;100383.09;5022527;28;20200;-78
2023/09/08 03:34:42;;;;;;;6.23;5.83;;;;;;;16.74;100.00;100391.84;5018905;28;20744;-78
2023/09/08 03:37:07;;;;;;;6.40;6.00;;;;;;;16.74;100.00;100394.47;5017509;28;20187;-78
2023/09/08 03:39:33;;;;;;;6.60;6.10;;;;;;;16.72;100.00;100390.19;5023762;28;20191;-77
2023/09/08 03:41:58;;;;;;;5.77;5.37;;;;;;;16.72;100.00;100393.66;5025021;28;20278;-77
2023/09/08 03:44:23;;;;;;;6.77;6.27;;;;;;;16.71;100.00;100389.31;5025474;28;20199;-79
2023/09/08 03:46:48;;;;;;;6.20;5.80;;;;;;;16.71;100.00;100398.94;5023417;28;20210;-77
2023/09/08 03:49:14;;;;;;;7.00;6.40;;;;;;;16.70;100.00;100394.63;5017594;28;20211;-77
2023/09/08 03:51:39;;;;;;;7.40;6.80;;;;;;;16.70;100.00;100395.50;5014307;28;20209;-78
2023/09/08 03:54:05;;;;;;;7.00;6.53;;;;;;;16.70;100.00;100403.31;5014145;28;20657;-78
2023/09/08 03:56:31;;;;;;;7.13;6.53;;;;;;;16.71;100.00;100398.94;5016548;28;20210;-77
2023/09/08 03:58:56;;;;;;;7.13;6.63;;;;;;;16.71;100.00;100396.31;5017647;28;20240;-77
2023/09/08 04:01:21;;;;;;;7.37;6.77;;;;;;;16.70;100.00;100385.03;5015925;28;20207;-78
2023/09/08 04:03:47;;;;;;;7.87;7.27;;;;;;;16.71;100.00;100409.41;5013814;28;20643;-77
2023/09/08 04:06:12;;;;;;;6.90;6.40;;;;;;;16.71;100.00;100401.56;5020010;28;20187;-78
2023/09/08 04:08:37;;;;;;;6.17;5.77;;;;;;;16.69;100.00;100401.63;5015942;28;20191;-77
2023/09/08 04:11:02;;;;;;;7.30;6.70;;;;;;;16.68;100.00;100409.50;5018587;28;20917;-78
2023/09/08 04:13:28;;;;;;;7.27;6.67;;;;;;;16.68;100.00;100404.25;5017377;28;20199;-77
2023/09/08 04:15:53;;;;;;;7.37;6.77;;;;;;;16.69;100.00;100403.34;5015996;28;20187;-77
2023/09/08 04:18:19;;;;;;;7.23;6.63;;;;;;;16.69;100.00;100404.22;5019746;28;20191;-77
2023/09/08 04:20:44;;;;;;;7.13;6.53;;;;;;;16.68;100.00;100407.75;5022629;28;20194;-77
2023/09/08 04:23:09;;;;;;;7.50;6.80;;;;;;;16.67;100.00;100408.66;5025184;28;20214;-77
2023/09/08 04:25:36;;;;;;;7.00;6.37;;;;;;;16.64;100.00;100411.34;5017475;28;20207;-78
2023/09/08 04:28:02;;;;;;;7.57;6.90;;;;;;;16.61;100.00;100404.47;5025233;28;20241;-78
2023/09/08 04:30:27;;;;;;;7.43;6.87;;;;;;;16.57;100.00;100402.00;5016964;28;20680;-78
2023/09/08 04:32:52;;;;;;;6.77;6.27;;;;;;;16.54;100.00;100404.72;5027763;28;20231;-77
2023/09/08 04:35:18;;;;;;;7.37;6.87;;;;;;;16.51;100.00;100400.44;5030565;28;20660;-77
2023/09/08 04:37:43;;;;;;;6.77;6.27;;;;;;;16.47;100.00;100398.84;5026305;28;20187;-78
2023/09/08 04:40:09;;;;;;;7.30;6.70;;;;;;;16.43;100.00;100400.69;5028342;28;20191;-77
2023/09/08 04:42:35;;;;;;;6.77;6.27;;;;;;;16.41;100.00;100401.63;5025918;28;20267;-77
2023/09/08 04:45:00;;;;;;;6.13;5.63;;;;;;;16.37;100.00;100398.28;5027526;28;20183;-77
2023/09/08 04:47:25;;;;;;;6.17;5.77;;;;;;;16.36;100.00;100407.00;5028827;28;20210;-77
2023/09/08 04:49:51;;;;;;;6.57;6.07;;;;;;;16.33;100.00;100404.50;5027767;28;20223;-77
2023/09/08 04:52:16;;;;;;;7.00;6.40;;;;;;;16.30;100.00;100418.50;5020838;28;20227;-78
2023/09/08 04:54:41;;;;;;;6.93;6.37;;;;;;;16.29;100.00;100416.78;5026684;28;20792;-77
2023/09/08 04:57:07;;;;;;;6.50;5.90;;;;;;;16.27;100.00;100418.59;5025421;28;20186;-77
2023/09/08 04:59:32;;;;;;;6.73;6.23;;;;;;;16.26;100.00;100413.44;5026501;28;20575;-78
2023/09/08 05:01:58;;;;;;;7.40;6.80;;;;;;;16.25;100.00;100427.38;5024754;28;20205;-77
2023/09/08 05:04:23;;;;;;;6.33;5.83;;;;;;;16.24;100.00;100426.50;5024898;28;20667;-77
2023/09/08 05:06:49;;;;;;;6.93;6.33;;;;;;;16.25;100.00;100427.38;5023687;28;20187;-77
2023/09/08 05:09:14;;;;;;;7.60;7.00;;;;;;;16.25;100.00;100432.59;5026370;28;20582;-79
2023/09/08 05:11:40;;;;;;;6.60;6.10;;;;;;;16.26;100.00;100435.16;5022366;28;20217;-77
2023/09/08 05:14:05;;;;;;;7.23;6.63;;;;;;;16.28;100.00;100441.19;5024031;28;20181;-77
2023/09/08 05:16:39;;;;;;;7.03;6.33;;;;;;;16.30;100.00;100439.41;5022756;28;20183;-78
2023/09/08 05:19:05;;;;;;;6.77;6.20;;;;;;;16.33;100.00;100435.00;5028454;28;20238;-79
2023/09/08 05:21:32;;;;;;;6.63;6.13;;;;;;;16.36;100.00;100445.31;5028628;28;20298;-77
2023/09/08 05:23:57;;;;;;;6.53;5.93;;;;;;;16.37;100.00;100447.91;5027084;28;20207;-78
2023/09/08 05:26:23;;;;;;;6.93;6.37;;;;;;;16.39;100.00;100448.72;5023630;28;20185;-78
2023/09/08 05:28:48;;;;;;;6.87;6.37;;;;;;;16.44;100.00;100453.78;5018879;28;20929;-77
2023/09/08 05:31:13;;;;;;;7.60;7.00;;;;;;;16.51;100.00;100446.63;5025902;28;20211;-77
2023/09/08 05:33:39;;;;;;;7.27;6.77;;;;;;;16.57;100.00;100449.00;5028699;28;20222;-79
2023/09/08 05:36:04;;;;;;;7.07;6.40;;;;;;;16.65;100.00;100446.16;5035678;28;20184;-77
2023/09/08 05:38:30;;;;;;;7.43;6.93;;;;;;;16.74;100.00;100445.88;5031297;28;20246;-77
2023/09/08 05:40:56;;;;;;;7.27;6.57;;;;;;;16.85;100.00;100456.00;5033170;28;20248;-77
2023/09/08 05:43:22;;;;;;;7.10;6.60;;;;;;;16.96;100.00;100446.06;5035692;28;20250;-77
2023/09/08 05:45:47;;;;;;;10.93;7.17;;;;;;;17.08;100.00;100449.19;5038251;28;20225;-77
2023/09/08 05:48:13;;;;;;;7.77;6.97;;;;;;;17.20;100.00;100446.13;5022892;28;20181;-77
2023/09/08 05:50:38;;;;;;;8.60;7.80;;;;;;;17.28;100.00;100446.75;5025896;28;21105;-77
2023/09/08 05:53:03;;;;;;;9.50;7.93;;;;;;;17.33;100.00;100449.19;5031211;28;20210;-77
2023/09/08 05:55:29;;;;;;;9.80;8.33;;;;;;;17.37;100.00;100448.19;5017718;28;20191;-77
2023/09/08 05:57:55;;;;;;;9.33;8.30;;;;;;;17.42;100.00;100445.41;5020325;28;20183;-78
2023/09/08 06:00:20;;;;;;;8.00;7.30;;;;;;;17.50;100.00;100445.97;5027850;28;20179;-77
2023/09/08 06:02:45;;;;;;;8.83;8.03;;;;;;;17.58;100.00;100446.59;5033978;28;20210;-78
2023/09/08 06:05:11;;;;;;;8.60;7.90;;;;;;;17.68;100.00;100447.94;5033203;28;20213;-78
2023/09/08 06:07:36;;;;;;;8.10;7.40;;;;;;;17.80;100.00;100453.66;5034592;28;20271;-77
2023/09/08 06:10:02;;;;;;;8.87;8.07;;;;;;;17.90;100.00;100451.53;5028583;28;20240;-77
2023/09/08 06:12:27;;;;;;;8.50;7.70;;;;;;;17.98;100.00;100454.78;5032593;28;20250;-78
2023/09/08 06:14:52;;;;;;;8.67;7.83;;;;;;;18.04;100.00;100453.69;5021744;28;20608;-78
2023/09/08 06:17:18;;;;;;;8.70;8.00;;;;;;;18.11;100.00;100449.91;5030476;28;20216;-77
2023/09/08 06:19:43;;;;;;;8.40;7.70;;;;;;;18.17;100.00;100454.94;5026395;28;20264;-78
2023/09/08 06:22:08;;;;;;;7.47;6.57;;;;;;;18.22;100.00;100450.38;5019401;28;20221;-77
2023/09/08 06:24:34;;;;;;;7.30;6.73;;;;;;;18.33;100.00;100449.13;5030346;28;20262;-77
2023/09/08 06:26:59;;;;;;;8.03;7.33;;;;;;;18.42;100.00;100454.84;5019040;28;20193;-78
2023/09/08 06:29:24;;;;;;;8.20;7.40;;;;;;;18.53;100.00;100451.78;5025806;28;20221;-77
2023/09/08 06:31:50;;;;;;;8.40;7.53;;;;;;;18.64;100.00;100448.75;5025187;28;20205;-77
2023/09/08 06:34:16;;;;;;;10.93;9.13;;;;;;;18.76;100.00;100449.16;5032089;28;20278;-77
2023/09/08 06:36:41;;;;;;;8.43;7.67;;;;;;;19.00;100.00;100460.44;5031903;28;20190;-78
2023/09/08 06:39:07;;;;;;;7.93;7.23;;;;;;;19.33;100.00;100455.56;5029341;28;20240;-77
2023/09/08 06:41:32;;;;;;;8.57;7.77;;;;;;;19.55;100.00;100457.25;5028665;28;20296;-78
2023/09/08 06:43:58;;;;;;;8.63;7.73;;;;;;;19.72;100.00;100458.28;5033029;28;20274;-77
2023/09/08 06:46:23;;;;;;;7.97;7.27;;;;;;;19.91;100.00;100453.06;5022264;28;20300;-77
2023/09/08 06:48:48;;;;;;;7.80;7.10;;;;;;;20.14;100.00;100459.06;5022484;28;20222;-77
2023/09/08 06:51:14;;;;;;;8.73;7.97;;;;;;;20.36;100.00;100451.03;5022680;28;20208;-78
2023/09/08 06:53:39;;;;;;;8.70;7.33;;;;;;;20.55;100.00;100453.63;5014498;28;20573;-78
2023/09/08 06:56:04;;;;;;;7.77;7.00;;;;;;;20.97;100.00;100456.88;5026059;28;20183;-78
2023/09/08 06:58:30;;;;;;;7.03;6.43;;;;;;;21.32;100.00;100452.47;5024313;28;20706;-78
2023/09/08 07:00:55;;;;;;;8.20;6.90;;;;;;;21.67;100.00;100453.38;5025487;28;21425;-78
2023/09/08 07:03:24;;;;;;;8.90;8.00;;;;;;;21.83;100.00;100461.31;5027425;28;20184;-77
2023/09/08 07:05:50;;;;;;;6.90;6.30;;;;;;;22.23;100.00;100462.63;5015646;28;20194;-78
2023/09/08 07:08:15;;;;;;;6.97;6.37;;;;;;;22.61;100.00;100472.00;5016574;28;20180;-78
2023/09/08 07:10:40;;;;;;;6.87;6.23;;;;;;;22.77;99.09;100471.13;5032855;28;20207;-77
2023/09/08 07:13:06;;;;;;;6.40;5.87;;;;;;;22.97;98.24;100468.19;5024484;28;20208;-78
2023/09/08 07:15:31;;;;;;;7.77;7.07;;;;;;;23.10;96.68;100462.19;5025291;28;20191;-78
2023/09/08 07:17:56;;;;;;;6.70;6.20;;;;;;;23.20;96.55;100463.38;5024062;28;20191;-78
2023/09/08 07:20:22;;;;;;;6.67;6.17;;;;;;;23.19;96.51;100466.91;5023914;28;20183;-78
2023/09/08 07:22:47;;;;;;;7.47;6.73;;;;;;;23.20;95.50;100468.66;5023885;28;20235;-78
2023/09/08 07:25:12;;;;;;;6.60;6.00;;;;;;;23.60;94.17;100460.97;5029652;28;20183;-77
2023/09/08 07:27:38;;;;;;;6.03;5.53;;;;;;;23.88;94.31;100464.56;5033899;28;20262;-78
2023/09/08 07:30:04;;;;;;;6.23;5.73;;;;;;;23.97;93.77;100459.66;5025669;28;20438;-78
2023/09/08 07:32:30;;;;;;;5.80;5.30;;;;;;;23.79;93.36;100470.41;5024571;28;20227;-78
2023/09/08 07:34:56;;;;;;;5.73;5.23;;;;;;;24.04;93.64;100466.28;5023085;28;20187;-78
2023/09/08 07:37:22;;;;;;;6.70;6.20;;;;;;;24.03;93.51;100461.94;5037541;28;20202;-77
2023/09/08 07:39:48;;;;;;;8.00;7.20;;;;;;;23.65;92.44;100466.00;5031967;28;20242;-78
2023/09/08 07:42:13;;;;;;;6.80;6.20;;;;;;;23.99;93.54;100474.47;5043860;28;20195;-78
2023/09/08 07:44:39;;;;;;;7.53;6.83;;;;;;;24.00;91.73;100475.34;5033179;28;20188;-78
2023/09/08 07:47:04;;;;;;;6.63;6.03;;;;;;;23.89;93.93;100471.56;5028969;28;20189;-78
2023/09/08 07:49:29;;;;;;;6.40;5.90;;;;;;;23.91;93.97;100484.66;5025237;28;20219;-78
2023/09/08 07:51:55;;;;;;;6.83;5.73;;;;;;;24.04;94.21;100479.50;5031087;28;20246;-78
2023/09/08 07:54:20;;;;;;;6.13;5.63;;;;;;;24.22;93.04;100469.56;5030424;28;20586;-78
2023/09/08 07:56:46;;;;;;;5.90;5.40;;;;;;;24.24;92.87;100480.03;5023838;28;20192;-78
2023/09/08 07:59:12;;;;;;;6.73;6.23;;;;;;;24.16;94.12;100478.72;5029850;28;20183;-77
2023/09/08 08:01:37;;;;;;;6.50;6.00;;;;;;;24.01;94.20;100477.88;5026860;28;20743;-77
2023/09/08 08:04:03;;;;;;;6.07;5.60;;;;;;;24.13;93.59;100470.97;5032350;28;20191;-78
2023/09/08 08:06:29;;;;;;;6.27;5.77;;;;;;;24.15;94.48;100476.16;5019785;28;20252;-78
2023/09/08 08:08:54;;;;;;;5.90;5.40;;;;;;;24.10;95.16;100472.97;5029104;28;20659;-79
2023/09/08 08:11:20;;;;;;;6.40;5.90;;;;;;;24.07;95.49;100471.34;5024747;28;20207;-78
2023/09/08 08:13:45;;;;;;;6.60;6.10;;;;;;;24.10;95.75;100463.25;5021269;28;20179;-78
2023/09/08 08:16:11;;;;;;;6.90;6.30;;;;;;;24.04;96.16;100468.94;5029702;28;20176;-77
2023/09/08 08:18:36;;;;;;;6.80;6.30;;;;;;;24.05;96.55;100468.81;5039151;28;20182;-77
2023/09/08 08:21:03;;;;;;;6.70;6.20;;;;;;;24.02;96.88;100470.81;5031908;28;20175;-77
2023/09/08 08:23:28;;;;;;;7.17;6.57;;;;;;;24.02;96.33;100462.88;5029374;28;20903;-76
2023/09/08 08:25:54;;;;;;;7.23;6.63;;;;;;;23.91;96.63;100468.81;5037656;28;20175;-77
2023/09/08 08:28:19;;;;;;;7.40;6.77;;;;;;;23.94;97.69;100463.34;5025838;28;20229;-78
2023/09/08 08:30:47;;;;;;;7.23;6.63;;;;;;;23.95;97.60;100465.03;5027012;28;20250;-77
2023/09/08 08:33:13;;;;;;;15.40;8.17;;;;;;;23.99;97.73;100460.44;5020752;28;20250;-77
2023/09/08 08:35:38;;;;;;;7.77;7.13;;;;;;;23.93;99.05;100466.06;5027189;28;20180;-77
2023/09/08 08:38:04;;;;;;;8.87;7.17;;;;;;;23.96;99.35;100458.84;5023861;28;20186;-79
2023/09/08 08:40:30;;;;;;;7.17;6.47;;;;;;;23.97;99.48;100457.91;5032168;28;20271;-78
2023/09/08 08:42:57;;;;;;;7.47;6.93;;;;;;;23.84;99.55;100457.78;5025654;28;20228;-77
2023/09/08 08:45:25;;;;;;;7.40;6.70;;;;;;;23.96;100.00;100464.13;5028585;28;20182;-76
2023/09/08 08:47:51;;;;;;;7.00;6.47;;;;;;;24.00;100.00;100462.97;5018314;28;20196;-77
2023/09/08 08:50:17;;;;;;;7.33;6.73;;;;;;;24.09;100.00;100460.69;5020930;28;20299;-78
2023/09/08 08:52:43;;;;;;;6.43;6.00;;;;;;;24.19;100.00;100469.75;5015373;28;20199;-77
2023/09/08 08:55:08;;;;;;;6.80;6.30;;;;;;;24.23;100.00;100462.44;5020479;28;20234;-77
2023/09/08 08:57:36;;;;;;;7.50;6.90;;;;;;;24.29;100.00;100449.69;5026446;28;20241;-77
2023/09/08 09:00:06;;;;;;;7.50;6.93;;;;;;;24.41;100.00;100455.16;5023607;28;20603;-77
2023/09/08 09:02:32;;;;;;;7.57;6.97;;;;;;;24.39;100.00;100459.69;5024449;28;20207;-78
2023/09/08 09:04:57;;;;;;;7.63;7.13;;;;;;;24.37;100.00;100457.13;5022064;28;20948;-77
2023/09/08 09:07:24;;;;;;;7.30;6.73;;;;;;;24.48;100.00;100459.09;5014841;28;20191;-77
2023/09/08 09:09:49;;;;;;;7.93;7.33;;;;;;;24.59;100.00;100455.75;5028935;28;20219;-78
2023/09/08 09:12:15;;;;;;;7.97;7.27;;;;;;;24.62;100.00;100442.31;5028277;28;20238;-78
2023/09/08 09:14:47;;;;;;;7.50;6.90;;;;;;;24.73;100.00;100447.78;5027920;28;20191;-78
2023/09/08 09:17:14;;;;;;;8.10;7.50;;;;;;;24.64;100.00;100459.78;5029044;28;20187;-77
2023/09/08 09:19:40;;;;;;;7.80;7.20;;;;;;;24.78;100.00;100453.63;5022736;28;20183;-77
2023/09/08 09:22:05;;;;;;;8.47;7.70;;;;;;;24.84;99.78;100454.16;5031260;28;20201;-78
2023/09/08 09:24:32;;;;;;;8.37;7.47;;;;;;;24.90;98.45;100448.47;5019136;28;20287;-77
2023/09/08 09:26:59;;;;;;;7.80;7.10;;;;;;;24.92;99.63;100449.22;5031576;28;20607;-77
2023/09/08 09:29:25;;;;;;;10.83;8.30;;;;;;;25.01;99.84;100450.41;5028696;28;20652;-78
2023/09/08 09:32:02;;;;;;;7.97;7.37;;;;;;;25.05;100.00;100450.06;5030910;28;20286;-77
2023/09/08 09:34:27;;;;;;;8.10;7.30;;;;;;;25.08;99.94;100449.00;5032389;28;20538;-78
2023/09/08 09:36:53;;;;;;;7.53;6.93;;;;;;;25.16;100.00;100448.50;5038673;28;20255;-78
2023/09/08 09:39:20;;;;;;;7.80;7.30;;;;;;;25.00;99.47;100443.41;5031475;28;20191;-78
2023/09/08 09:41:47;;;;;;;9.70;8.90;;;;;;;24.84;100.00;100447.06;5042172;28;20226;-78
2023/09/08 09:44:12;;;;;;;9.33;8.43;;;;;;;24.86;100.00;100445.19;5031790;28;20175;-80
2023/09/08 09:46:38;;;;;;;8.93;8.03;;;;;;;24.76;100.00;100444.94;5031277;28;20644;-78
2023/09/08 09:49:03;;;;;;;9.37;8.57;;;;;;;24.90;100.00;100445.81;5024372;28;20187;-78
2023/09/08 09:51:29;;;;;;;9.20;8.27;;;;;;;24.87;100.00;100448.66;5023685;28;20216;-78
2023/09/08 09:53:55;;;;;;;8.90;8.10;;;;;;;24.99;100.00;100436.41;5029852;28;20191;-77
2023/09/08 09:56:23;;;;;;;8.60;7.80;;;;;;;24.96;100.00;100438.31;5035667;28;20669;-78
2023/09/08 09:58:49;;;;;;;7.60;6.90;;;;;;;25.15;100.00;100431.78;5026415;28;20187;-78
2023/09/08 10:01:16;;;;;;;8.30;7.60;;;;;;;25.15;100.00;100442.38;5026222;28;20205;-78
2023/09/08 10:03:42;;;;;;;8.73;7.93;;;;;;;25.38;100.00;100438.13;5025228;28;20930;-79
2023/09/08 10:06:09;;;;;;;9.07;8.37;;;;;;;25.33;98.88;100434.94;5022797;28;20279;-78
2023/09/08 10:08:37;;;;;;;8.67;7.93;;;;;;;25.46;98.69;100428.81;5025930;28;20207;-77
2023/09/08 10:11:07;;;;;;;8.30;7.70;;;;;;;25.66;98.09;100438.91;5031283;28;20214;-78
2023/09/08 10:13:40;;;;;;;7.90;7.10;;;;;;;25.79;98.48;100438.84;5025291;28;20246;-78
2023/09/08 10:16:07;;;;;;;8.87;8.07;;;;;;;25.86;98.34;100434.81;5015963;28;20184;-79
2023/09/08 10:18:35;;;;;;;8.10;7.50;;;;;;;25.94;98.30;100436.94;5014719;28;20218;-78
2023/09/08 10:21:04;;;;;;;9.23;8.20;;;;;;;25.85;97.58;100427.81;5021080;28;20733;-78
2023/09/08 10:23:38;;;;;;;8.60;7.80;;;;;;;25.95;96.11;100424.50;5016173;28;20211;-78
2023/09/08 10:26:07;;;;;;;7.77;7.13;;;;;;;25.84;96.79;100420.81;5037909;28;20609;-79
2023/09/08 10:28:33;;;;;;;8.17;7.43;;;;;;;25.50;98.30;100420.56;5020561;28;20267;-80
2023/09/08 10:30:59;;;;;;;7.97;7.37;;;;;;;25.79;97.71;100415.00;5019069;28;20212;-77
2023/09/08 10:33:26;;;;;;;8.60;7.90;;;;;;;25.92;98.31;100414.16;5019988;28;20203;-78
2023/09/08 10:35:52;;;;;;;7.93;7.33;;;;;;;25.77;97.61;100416.94;5017570;28;20602;-78
2023/09/08 10:38:28;;;;;;;7.67;7.07;;;;;;;25.95;97.49;100421.84;5021965;28;20191;-76
2023/09/08 10:41:16;;;;;;;8.03;7.40;;;;;;;26.21;96.42;100421.81;5015277;28;21098;-78
2023/09/08 10:43:45;;;;;;;7.60;7.00;;;;;;;26.31;96.48;100418.41;5018245;28;20187;-79
2023/09/08 10:46:20;;;;;;;8.00;7.30;;;;;;;26.49;94.57;100410.00;5020813;28;20226;-78
2023/09/08 10:48:46;;;;;;;7.83;7.13;;;;;;;26.53;94.64;100414.13;5014998;28;20774;-77
2023/09/08 10:51:15;;;;;;;8.00;7.30;;;;;;;26.61;95.79;100416.22;5021445;28;20229;-77
2023/09/08 10:56:18;;;;;;;8.83;8.13;;;;;;;26.74;94.04;100406.38;5273980;22;20233;-80
2023/09/08 11:01:26;;;;;;;7.77;7.13;;;;;;;26.76;93.90;100398.31;5520414;23;20986;-79
2023/09/08 11:03:53;;;;;;;9.47;8.30;;;;;;;26.45;94.89;100408.56;4959287;28;20681;-79
2023/09/08 11:06:23;;;;;;;8.37;7.67;;;;;;;26.59;94.98;100405.72;4964211;28;20321;-79
2023/09/08 11:08:55;;;;;;;8.67;7.60;;;;;;;26.37;95.36;100403.81;4959111;28;20674;-79
2023/09/08 11:11:21;;;;;;;9.10;8.40;;;;;;;26.22;96.10;100403.13;4958581;28;20220;-79
2023/09/08 11:13:47;;;;;;;7.90;7.30;;;;;;;26.15;95.78;100399.25;4964933;28;20736;-79
2023/09/08 11:16:21;;;;;;;8.27;7.57;;;;;;;26.38;94.80;100392.25;4956389;28;20194;-79
2023/09/08 11:18:47;;;;;;;8.40;7.70;;;;;;;26.48;94.05;100397.69;4976148;28;20202;-80
2023/09/08 11:21:13;;;;;;;8.10;7.40;;;;;;;26.55;93.88;100388.34;4959981;28;20225;-81